createdAt,value
2018-06-15T06:28:31.969Z,7.05
2018-06-15T06:31:00.774Z,6.00
2018-06-15T06:33:30.108Z,6.35
2018-06-15T06:36:00.250Z,6.15
2018-06-15T06:38:30.895Z,7.17
2018-06-15T06:41:00.445Z,6.27
2018-06-15T06:43:29.244Z,6.70
2018-06-15T06:45:59.832Z,5.87
2018-06-15T06:48:28.757Z,6.60
2018-06-15T06:50:58.798Z,7.47
2018-06-15T06:53:27.717Z,9.07
2018-06-15T06:55:58.768Z,8.37
2018-06-15T06:58:27.640Z,8.97
2018-06-15T07:01:08.969Z,8.73
2018-06-15T07:03:38.185Z,7.53
2018-06-15T07:06:06.599Z,7.63
2018-06-15T07:08:35.718Z,8.00
2018-06-15T07:11:08.423Z,6.87
2018-06-15T07:13:37.258Z,7.33
2018-06-15T07:16:18.724Z,7.90
2018-06-15T07:18:47.905Z,7.37
2018-06-15T07:21:16.747Z,7.83
2018-06-15T07:23:45.141Z,6.80
2018-06-15T07:26:14.412Z,6.87
2018-06-15T07:28:43.591Z,6.47
2018-06-15T07:31:25.477Z,5.37
2018-06-15T07:33:54.621Z,5.83
2018-06-15T07:36:23.484Z,6.42
2018-06-15T07:38:52.217Z,5.70
2018-06-15T07:41:21.692Z,5.25
2018-06-15T07:43:51.088Z,4.97
2018-06-15T07:46:24.301Z,5.28
2018-06-15T07:48:53.734Z,4.90
2018-06-15T07:51:26.551Z,4.83
2018-06-15T07:53:55.697Z,5.30
2018-06-15T07:56:26.527Z,5.50
2018-06-15T07:58:56.273Z,4.65
2018-06-15T08:01:37.093Z,5.35
2018-06-15T08:04:10.272Z,5.58
2018-06-15T08:06:39.159Z,5.75
2018-06-15T08:09:09.173Z,6.90
2018-06-15T08:11:40.181Z,6.62
2018-06-15T08:14:09.239Z,6.33
2018-06-15T08:16:38.647Z,5.87
2018-06-15T08:19:07.959Z,5.85
2018-06-15T08:21:39.474Z,5.62
2018-06-15T08:24:10.919Z,6.35
2018-06-15T08:26:40.598Z,5.70
2018-06-15T08:29:09.346Z,4.97
2018-06-15T08:31:43.236Z,4.62
2018-06-15T08:34:12.595Z,4.30
2018-06-15T08:36:45.849Z,3.50
2018-06-15T08:39:14.683Z,4.70
2018-06-15T08:41:48.477Z,3.80
2018-06-15T08:44:18.337Z,4.10
2018-06-15T08:46:50.305Z,3.85
2018-06-15T08:49:19.669Z,3.70
2018-06-15T08:51:52.310Z,3.40
2018-06-15T08:54:21.714Z,3.15
2018-06-15T08:56:56.451Z,4.10
2018-06-15T08:59:25.173Z,3.45
2018-06-15T09:01:57.424Z,3.10
2018-06-15T09:04:27.703Z,3.10
2018-06-15T09:07:01.174Z,3.20
2018-06-15T09:09:30.428Z,4.37
2018-06-15T09:12:03.080Z,3.67
2018-06-15T09:14:32.090Z,4.30
2018-06-15T09:17:05.406Z,4.87
2018-06-15T09:19:35.096Z,5.28
2018-06-15T09:22:08.293Z,4.28
2018-06-15T09:24:38.387Z,4.17
2018-06-15T09:27:12.422Z,5.12
2018-06-15T09:29:40.909Z,4.08
2018-06-15T09:32:11.651Z,3.90
2018-06-15T09:34:40.599Z,4.58
2018-06-15T09:37:14.314Z,3.87
2018-06-15T09:39:43.534Z,3.47
2018-06-15T09:42:15.515Z,3.20
2018-06-15T09:44:44.014Z,5.12
2018-06-15T09:47:25.702Z,4.90
2018-06-15T09:49:54.624Z,5.15
2018-06-15T09:52:24.676Z,5.55
2018-06-15T09:54:53.683Z,4.30
2018-06-15T09:57:23.847Z,4.87
2018-06-15T09:59:52.242Z,4.55
2018-06-15T10:02:22.561Z,3.45
2018-06-15T10:04:51.765Z,3.55
2018-06-15T10:07:24.545Z,3.22
2018-06-15T10:09:54.187Z,3.58
2018-06-15T10:12:27.903Z,3.70
2018-06-15T10:14:58.718Z,3.22
2018-06-15T10:17:28.179Z,3.33
2018-06-15T10:19:58.452Z,3.40
2018-06-15T10:22:31.593Z,3.02
2018-06-15T10:25:00.177Z,3.60
2018-06-15T10:27:31.720Z,3.72
2018-06-15T10:30:00.985Z,3.25
2018-06-15T10:32:33.779Z,2.92
2018-06-15T10:35:04.036Z,3.37
2018-06-15T10:37:36.088Z,3.62
2018-06-15T10:40:08.100Z,3.20
2018-06-15T10:42:38.261Z,3.27
2018-06-15T10:45:07.176Z,3.02
2018-06-15T10:47:40.281Z,3.55
2018-06-15T10:50:10.154Z,2.77
2018-06-15T10:52:43.714Z,3.70
2018-06-15T10:55:12.117Z,3.87
2018-06-15T10:57:46.195Z,4.45
2018-06-15T11:00:15.448Z,4.10
2018-06-15T11:02:48.247Z,3.92
2018-06-15T11:05:17.626Z,3.22
2018-06-15T11:07:50.161Z,3.17
2018-06-15T11:10:19.147Z,3.40
2018-06-15T11:12:51.292Z,3.40
2018-06-15T11:15:21.331Z,3.62
2018-06-15T11:17:54.133Z,3.47
2018-06-15T11:20:23.863Z,3.15
2018-06-15T11:22:58.116Z,3.70
2018-06-15T11:25:27.596Z,2.52
2018-06-15T11:27:58.826Z,3.47
2018-06-15T11:30:28.681Z,2.77
2018-06-15T11:33:01.827Z,3.30
2018-06-15T11:35:31.161Z,3.40
2018-06-15T11:38:04.481Z,3.20
2018-06-15T11:40:33.965Z,3.20
2018-06-15T11:43:08.722Z,3.63
2018-06-15T11:45:40.181Z,3.13
2018-06-15T11:48:12.178Z,3.30
2018-06-15T11:50:46.649Z,2.73
2018-06-15T11:53:16.317Z,3.30
2018-06-15T11:55:46.705Z,2.83
2018-06-15T11:58:17.084Z,2.93
2018-06-15T12:00:46.465Z,3.13
2018-06-15T12:03:16.222Z,2.90
2018-06-15T12:05:48.447Z,3.30
2018-06-15T12:08:18.242Z,3.10
2018-06-15T12:10:47.043Z,3.20
2018-06-15T12:13:16.397Z,3.27
2018-06-15T12:15:45.701Z,2.95
2018-06-15T12:18:27.190Z,2.83
2018-06-15T12:20:57.246Z,3.53
2018-06-15T12:23:26.109Z,2.90
2018-06-15T12:25:54.638Z,2.90
2018-06-15T12:28:24.257Z,3.22
2018-06-15T12:30:53.309Z,2.70
2018-06-15T12:33:23.224Z,2.97
2018-06-15T12:35:53.102Z,2.90
2018-06-15T12:41:05.626Z,2.70
2018-06-15T12:43:36.796Z,3.20
2018-06-15T12:46:06.329Z,3.17
2018-06-15T12:48:35.097Z,2.87
2018-06-15T12:51:03.939Z,3.10
2018-06-15T12:53:32.638Z,2.83
2018-06-15T12:56:01.323Z,3.00
2018-06-15T12:58:33.565Z,2.87
2018-06-15T13:01:06.716Z,2.80
2018-06-15T13:03:36.550Z,2.63
2018-06-15T13:06:10.555Z,2.53
2018-06-15T13:08:39.962Z,2.62
2018-06-15T13:11:08.830Z,2.70
2018-06-15T13:13:44.298Z,2.62
2018-06-15T13:16:13.698Z,2.67
2018-06-15T13:18:43.674Z,2.95
2018-06-15T13:21:12.900Z,2.52
2018-06-15T13:23:44.887Z,2.40
2018-06-15T13:26:14.281Z,2.35
2018-06-15T13:28:46.692Z,2.20
2018-06-15T13:31:16.527Z,2.67
2018-06-15T13:33:48.609Z,2.37
2018-06-15T13:38:40.441Z,2.75
2018-06-15T13:41:09.665Z,2.33
2018-06-15T13:43:41.581Z,2.65
2018-06-15T13:46:12.634Z,2.40
2018-06-15T13:48:41.800Z,2.65
2018-06-15T13:51:12.600Z,2.47
2018-06-15T13:53:42.106Z,2.35
2018-06-15T13:56:11.056Z,2.00
2018-06-15T13:58:40.828Z,2.00
2018-06-15T14:01:11.501Z,2.30
2018-06-15T14:03:42.726Z,2.52
2018-06-15T14:06:11.954Z,2.17
2018-06-15T14:08:41.181Z,1.92
2018-06-15T14:11:10.583Z,2.70
2018-06-15T14:13:39.094Z,2.40
2018-06-15T14:16:12.639Z,2.37
2018-06-15T14:18:44.596Z,2.22
2018-06-15T14:21:13.780Z,2.43
2018-06-15T14:23:43.184Z,2.65
2018-06-15T14:26:15.658Z,2.40
2018-06-15T14:28:44.611Z,2.50
2018-06-15T14:31:17.332Z,2.60
2018-06-15T14:33:47.720Z,2.40
2018-06-15T14:36:18.283Z,2.50
2018-06-15T14:38:47.024Z,2.35
2018-06-15T14:41:18.188Z,2.00
2018-06-15T14:43:46.760Z,2.22
2018-06-15T14:46:20.524Z,2.10
2018-06-15T14:48:50.223Z,2.40
2018-06-15T14:51:23.716Z,2.33
2018-06-15T14:53:52.738Z,2.00
2018-06-15T14:56:24.171Z,2.27
2018-06-15T14:58:54.201Z,2.22
2018-06-15T15:01:27.608Z,3.12
2018-06-15T15:03:57.173Z,1.98
2018-06-15T15:06:29.723Z,2.00
2018-06-15T15:08:59.024Z,1.90
2018-06-15T15:11:31.365Z,2.20
2018-06-15T15:14:00.713Z,2.23
2018-06-15T15:16:36.181Z,2.03
2018-06-15T15:19:09.334Z,2.50
2018-06-15T15:21:39.098Z,2.60
2018-06-15T15:24:09.445Z,1.80
2018-06-15T15:26:38.909Z,2.23
2018-06-15T15:29:08.225Z,2.37
2018-06-15T15:31:39.423Z,2.70
2018-06-15T15:34:08.938Z,2.50
2018-06-15T15:36:44.974Z,2.47
2018-06-15T15:39:13.817Z,2.07
2018-06-15T15:41:43.828Z,2.60
2018-06-15T15:44:13.353Z,2.40
2018-06-15T15:46:45.677Z,2.62
2018-06-15T15:49:17.218Z,2.67
2018-06-15T15:51:47.647Z,2.40
2018-06-15T15:54:16.493Z,2.60
2018-06-15T15:56:58.726Z,2.77
2018-06-15T15:59:27.824Z,2.80
2018-06-15T16:01:57.165Z,2.70
2018-06-15T16:04:29.307Z,3.07
2018-06-15T16:06:59.096Z,2.77
2018-06-15T16:09:28.193Z,2.70
2018-06-15T16:11:57.769Z,3.37
2018-06-15T16:14:27.090Z,2.65
2018-06-15T16:17:00.125Z,2.50
2018-06-15T16:19:32.333Z,3.22
2018-06-15T16:22:01.661Z,3.13
2018-06-15T16:24:31.534Z,2.77
2018-06-15T16:27:04.677Z,2.70
2018-06-15T16:29:36.806Z,3.02
2018-06-15T16:32:05.616Z,2.62
2018-06-15T16:34:35.549Z,3.00
2018-06-15T16:37:09.093Z,2.45
2018-06-15T16:39:39.301Z,3.00
2018-06-15T16:42:14.464Z,2.90
2018-06-15T16:44:45.165Z,3.10
2018-06-15T16:47:15.213Z,3.00
2018-06-15T16:49:44.231Z,2.97
2018-06-15T16:52:15.301Z,3.10
2018-06-15T16:54:44.218Z,2.90
2018-06-15T16:57:31.482Z,3.33
2018-06-15T17:00:06.443Z,2.97
2018-06-15T17:02:35.395Z,3.20
2018-06-15T17:05:04.165Z,3.00
2018-06-15T17:07:33.244Z,3.27
2018-06-15T17:10:03.152Z,3.03
2018-06-15T17:12:33.079Z,2.80
2018-06-15T17:15:03.185Z,3.33
2018-06-15T17:17:33.702Z,2.60
2018-06-15T17:20:02.619Z,2.87
2018-06-15T17:22:31.324Z,3.17
2018-06-15T17:25:00.643Z,3.13
2018-06-15T17:27:31.625Z,2.90
2018-06-15T17:30:00.647Z,3.33
2018-06-15T17:32:29.446Z,3.20
2018-06-15T17:34:59.962Z,3.00
2018-06-15T17:37:32.584Z,2.70
2018-06-15T17:40:02.277Z,2.63
2018-06-15T17:42:34.697Z,2.93
2018-06-15T17:45:03.211Z,3.03
2018-06-15T17:47:37.326Z,3.77
2018-06-15T17:50:07.876Z,3.13
2018-06-15T17:52:37.710Z,3.40
2018-06-15T17:55:07.064Z,2.63
2018-06-15T17:57:40.706Z,2.73
2018-06-15T18:00:10.289Z,2.70
2018-06-15T18:02:46.853Z,3.40
2018-06-15T18:05:18.106Z,3.00
2018-06-15T18:07:54.993Z,3.07
2018-06-15T18:10:25.150Z,2.93
2018-06-15T18:12:59.181Z,3.30
2018-06-15T18:15:28.541Z,3.00
2018-06-15T18:17:58.796Z,3.10
2018-06-15T18:20:28.234Z,3.40
2018-06-15T18:22:59.098Z,3.17
2018-06-15T18:25:32.331Z,3.17
2018-06-15T18:28:20.721Z,4.00
2018-06-15T18:30:54.698Z,3.63
2018-06-15T18:33:26.333Z,3.53
2018-06-15T18:35:56.615Z,4.23
2018-06-15T18:38:27.706Z,3.33
2018-06-15T18:41:09.709Z,3.50
2018-06-15T18:43:41.725Z,3.37
2018-06-15T18:46:11.404Z,3.53
2018-06-15T18:48:43.749Z,3.80
2018-06-15T18:51:13.346Z,3.57
2018-06-15T18:53:45.736Z,3.17
2018-06-15T18:56:14.725Z,3.47
2018-06-15T18:58:44.174Z,3.63
2018-06-15T19:01:15.100Z,3.70
2018-06-15T19:03:49.610Z,3.80
2018-06-15T19:06:22.207Z,3.27
2018-06-15T19:08:50.687Z,4.10
2018-06-15T19:11:19.719Z,2.87
2018-06-15T19:13:49.227Z,4.47
2018-06-15T19:16:20.689Z,3.13
2018-06-15T19:18:50.084Z,3.37
2018-06-15T19:21:19.913Z,3.20
2018-06-15T19:23:49.129Z,3.53
2018-06-15T19:26:19.560Z,3.07
2018-06-15T19:28:49.397Z,3.83
2018-06-15T19:31:22.215Z,4.60
2018-06-15T19:33:51.178Z,3.40
2018-06-15T19:36:22.107Z,3.33
2018-06-15T19:38:52.175Z,4.00
2018-06-15T19:41:24.197Z,3.43
2018-06-15T19:43:53.237Z,3.90
2018-06-15T19:46:24.629Z,3.50
2018-06-15T19:48:55.577Z,4.00
2018-06-15T19:51:27.513Z,3.37
2018-06-15T19:53:57.222Z,3.80
2018-06-15T19:56:29.847Z,3.70
2018-06-15T19:59:00.348Z,4.97
2018-06-15T20:01:30.620Z,4.37
2018-06-15T20:04:00.451Z,3.57
2018-06-15T20:06:33.303Z,4.20
2018-06-15T20:09:02.095Z,4.10
2018-06-15T20:11:37.215Z,3.93
2018-06-15T20:14:05.956Z,4.60
2018-06-15T20:16:38.257Z,4.93
2018-06-15T20:19:08.225Z,4.27
2018-06-15T20:21:40.513Z,5.30
2018-06-15T20:24:10.459Z,4.13
2018-06-15T20:29:21.334Z,4.40
2018-06-15T20:31:51.637Z,4.80
2018-06-15T20:34:22.218Z,4.50
2018-06-15T20:36:52.953Z,4.83
2018-06-15T20:39:21.821Z,4.23
2018-06-15T20:41:52.253Z,4.37
2018-06-15T20:44:21.145Z,4.20
2018-06-15T20:46:50.341Z,4.13
2018-06-15T20:49:19.645Z,7.57
2018-06-15T20:52:01.308Z,5.97
2018-06-15T20:54:31.045Z,5.83
2018-06-15T20:57:00.539Z,4.87
2018-06-15T20:59:29.620Z,5.30
2018-06-15T21:01:59.405Z,4.70
2018-06-15T21:04:29.757Z,4.40
2018-06-15T21:07:01.748Z,5.00
2018-06-15T21:09:30.714Z,4.77
2018-06-15T21:12:04.728Z,5.00
2018-06-15T21:14:33.610Z,4.80
2018-06-15T21:17:03.389Z,4.80
2018-06-15T21:19:33.014Z,4.67
2018-06-15T21:22:08.960Z,5.20
2018-06-15T21:24:38.254Z,4.90
2018-06-15T21:27:10.273Z,5.50
2018-06-15T21:29:40.047Z,5.43
2018-06-15T21:32:12.533Z,5.23
2018-06-15T21:34:41.703Z,4.50
2018-06-15T21:37:14.767Z,4.97
2018-06-15T21:39:44.281Z,6.43
2018-06-15T21:42:17.084Z,5.13
2018-06-15T21:44:48.400Z,5.17
2018-06-15T21:47:19.519Z,6.00
2018-06-15T21:49:48.554Z,5.23
2018-06-15T21:52:21.401Z,5.47
2018-06-15T21:54:51.001Z,5.30
2018-06-15T21:57:21.185Z,6.20
2018-06-15T21:59:49.789Z,5.33
2018-06-15T22:02:31.283Z,5.50
2018-06-15T22:05:00.203Z,5.33
2018-06-15T22:07:29.661Z,5.17
2018-06-15T22:10:00.379Z,5.20
2018-06-15T22:12:29.615Z,5.23
2018-06-15T22:15:00.724Z,5.17
2018-06-15T22:17:29.701Z,5.03
2018-06-15T22:20:02.104Z,5.07
2018-06-15T22:22:30.619Z,5.30
2018-06-15T22:25:00.575Z,5.73
2018-06-15T22:27:31.794Z,5.10
2018-06-15T22:30:01.607Z,4.70
2018-06-15T22:32:38.909Z,5.30
2018-06-15T22:35:10.253Z,5.17
2018-06-15T22:37:40.399Z,5.30
2018-06-15T22:40:09.606Z,5.00
2018-06-15T22:42:38.739Z,5.87
2018-06-15T22:45:07.757Z,5.80
2018-06-15T22:47:40.484Z,5.00
2018-06-15T22:50:10.317Z,5.40
2018-06-15T22:52:51.709Z,5.93
2018-06-15T22:55:21.246Z,6.40
2018-06-15T22:57:50.433Z,6.10
2018-06-15T23:00:23.770Z,5.87
2018-06-15T23:02:53.309Z,5.57
2018-06-15T23:05:21.838Z,5.43
2018-06-15T23:07:50.738Z,5.97
2018-06-15T23:10:19.154Z,6.30
2018-06-15T23:13:00.761Z,6.00
2018-06-15T23:15:30.522Z,6.60
2018-06-15T23:17:59.505Z,6.30
2018-06-15T23:20:31.335Z,5.97
2018-06-15T23:23:00.617Z,6.33
2018-06-15T23:25:29.533Z,5.70
2018-06-15T23:27:58.390Z,5.83
2018-06-15T23:30:28.603Z,5.67
2018-06-15T23:33:10.244Z,5.60
2018-06-15T23:35:39.666Z,5.53
2018-06-15T23:38:08.477Z,5.97
2018-06-15T23:40:38.418Z,6.10
2018-06-15T23:43:07.338Z,5.37
2018-06-15T23:45:36.160Z,5.00
2018-06-15T23:48:17.376Z,5.70
2018-06-15T23:50:46.515Z,5.77
2018-06-15T23:53:16.709Z,5.77
2018-06-15T23:55:45.476Z,5.93
2018-06-15T23:58:14.197Z,4.87
